createdAt,value
2022-07-31T00:02:02.477Z,20.80
2022-07-31T00:05:05.133Z,20.80
2022-07-31T00:08:06.778Z,20.80
2022-07-31T00:11:11.499Z,20.70
2022-07-31T00:14:13.088Z,20.70
2022-07-31T00:17:15.067Z,20.70
2022-07-31T00:20:18.484Z,20.70
2022-07-31T00:23:20.060Z,20.60
2022-07-31T00:26:30.930Z,20.60
2022-07-31T00:29:32.785Z,20.60
2022-07-31T00:32:34.469Z,20.70
2022-07-31T00:35:36.086Z,20.60
2022-07-31T00:38:37.734Z,20.50
2022-07-31T00:41:42.388Z,20.60
2022-07-31T00:44:44.123Z,20.40
2022-07-31T00:47:49.638Z,20.30
2022-07-31T00:50:57.533Z,20.20
2022-07-31T00:53:59.399Z,20.30
2022-07-31T00:57:01.857Z,20.30
2022-07-31T01:03:29.452Z,20.20
2022-07-31T01:06:31.033Z,20.20
2022-07-31T01:09:33.165Z,20.20
2022-07-31T01:12:51.015Z,20.10
2022-07-31T01:15:57.009Z,19.90
2022-07-31T01:18:59.752Z,19.80
2022-07-31T01:22:33.268Z,19.70
2022-07-31T01:26:03.044Z,19.60
2022-07-31T01:29:21.334Z,19.60
2022-07-31T01:32:28.819Z,19.60
2022-07-31T01:35:34.948Z,19.60
2022-07-31T01:38:43.830Z,19.60
2022-07-31T01:41:48.299Z,19.60
2022-07-31T01:44:54.485Z,19.50
2022-07-31T01:47:57.602Z,19.50
2022-07-31T01:51:01.632Z,19.50
2022-07-31T01:54:03.728Z,19.50
2022-07-31T01:57:07.231Z,19.40
2022-07-31T02:00:28.634Z,19.40
2022-07-31T02:03:43.750Z,19.40
2022-07-31T02:06:49.823Z,19.30
2022-07-31T02:09:58.710Z,19.30
2022-07-31T02:13:05.196Z,19.30
2022-07-31T02:16:07.799Z,19.20
2022-07-31T02:19:11.859Z,19.20
2022-07-31T02:22:13.645Z,19.20
2022-07-31T02:25:15.337Z,19.10
2022-07-31T02:28:20.391Z,19.10
2022-07-31T02:31:23.272Z,19.00
2022-07-31T02:34:29.213Z,19.00
2022-07-31T02:37:34.734Z,19.00
2022-07-31T02:40:37.638Z,18.90
2022-07-31T02:43:39.837Z,18.90
2022-07-31T02:46:44.590Z,18.80
2022-07-31T02:49:47.057Z,18.80
2022-07-31T02:52:48.860Z,18.70
2022-07-31T02:55:51.746Z,18.60
2022-07-31T02:58:53.415Z,18.60
2022-07-31T03:01:55.880Z,18.60
2022-07-31T03:04:57.522Z,18.60
2022-07-31T03:07:59.988Z,18.50
2022-07-31T03:11:01.797Z,18.50
2022-07-31T03:14:04.133Z,18.50
2022-07-31T03:17:08.058Z,18.50
2022-07-31T03:20:10.831Z,18.50
2022-07-31T03:23:13.298Z,18.50
2022-07-31T03:26:16.102Z,18.40
2022-07-31T03:29:39.058Z,18.40
2022-07-31T03:32:39.284Z,18.40
2022-07-31T03:35:44.707Z,18.30
2022-07-31T03:38:50.432Z,18.20
2022-07-31T03:41:54.917Z,18.20
2022-07-31T03:44:56.733Z,18.20
2022-07-31T03:47:58.379Z,18.10
2022-07-31T03:51:00.190Z,18.00
2022-07-31T03:54:01.980Z,18.00
2022-07-31T03:57:04.171Z,17.90
2022-07-31T04:00:09.108Z,17.90
2022-07-31T04:03:18.696Z,17.90
2022-07-31T04:06:20.281Z,18.00
2022-07-31T04:09:21.957Z,18.00
2022-07-31T04:12:23.539Z,18.10
2022-07-31T04:15:25.385Z,18.20
2022-07-31T04:18:27.007Z,18.30
2022-07-31T04:21:28.732Z,18.50
2022-07-31T04:24:30.318Z,18.60
2022-07-31T04:27:32.133Z,18.80
2022-07-31T04:30:33.752Z,19.00
2022-07-31T04:33:35.375Z,19.10
2022-07-31T04:36:48.335Z,19.30
2022-07-31T04:39:49.923Z,19.40
2022-07-31T04:42:51.572Z,19.60
2022-07-31T04:45:53.204Z,19.70
2022-07-31T04:48:54.803Z,19.80
2022-07-31T04:51:57.372Z,19.80
2022-07-31T04:54:58.963Z,19.70
2022-07-31T04:58:00.588Z,19.80
2022-07-31T05:01:03.214Z,19.70
2022-07-31T05:04:05.968Z,19.70
2022-07-31T05:07:07.629Z,19.70
2022-07-31T05:10:09.887Z,19.60
2022-07-31T05:13:11.457Z,19.60
2022-07-31T05:16:13.102Z,19.40
2022-07-31T05:19:15.103Z,19.30
2022-07-31T05:22:16.834Z,19.20
2022-07-31T05:25:20.614Z,19.20
2022-07-31T05:28:22.309Z,19.20
2022-07-31T05:31:31.780Z,19.30
2022-07-31T05:34:33.986Z,19.40
2022-07-31T05:37:35.592Z,19.50
2022-07-31T05:40:37.180Z,19.60
2022-07-31T05:43:39.390Z,19.80
2022-07-31T05:46:40.999Z,20.00
2022-07-31T05:49:42.579Z,20.30
2022-07-31T05:52:44.202Z,20.40
2022-07-31T05:55:47.576Z,20.40
2022-07-31T05:58:49.179Z,20.50
2022-07-31T06:01:51.041Z,20.60
2022-07-31T06:04:52.850Z,20.70
2022-07-31T06:07:54.623Z,20.80
2022-07-31T06:10:56.426Z,20.90
2022-07-31T06:13:58.356Z,20.90
2022-07-31T06:17:00.008Z,21.00
2022-07-31T06:20:02.302Z,21.10
2022-07-31T06:23:03.926Z,21.10
2022-07-31T06:26:26.751Z,21.10
2022-07-31T06:29:41.076Z,21.20
2022-07-31T06:32:44.028Z,21.30
2022-07-31T06:35:45.633Z,21.30
2022-07-31T06:38:47.246Z,21.50
2022-07-31T06:41:48.947Z,21.60
2022-07-31T06:44:50.698Z,21.70
2022-07-31T06:47:52.339Z,21.80
2022-07-31T06:51:08.492Z,21.80
2022-07-31T06:54:15.490Z,22.00
2022-07-31T06:57:17.164Z,22.10
2022-07-31T07:00:20.954Z,22.30
2022-07-31T07:03:22.864Z,22.30
2022-07-31T07:06:24.463Z,22.30
2022-07-31T07:09:26.066Z,22.40
2022-07-31T07:12:28.468Z,22.50
2022-07-31T07:15:30.139Z,22.50
2022-07-31T07:18:31.735Z,22.70
2022-07-31T07:21:34.744Z,22.70
2022-07-31T07:24:36.319Z,23.00
2022-07-31T07:27:38.064Z,23.10
2022-07-31T07:30:40.094Z,23.40
2022-07-31T07:33:42.931Z,23.60
2022-07-31T07:36:44.994Z,23.90
2022-07-31T07:39:46.731Z,24.20
2022-07-31T07:42:48.496Z,24.30
2022-07-31T07:45:50.182Z,24.50
2022-07-31T07:48:52.403Z,24.60
2022-07-31T07:51:59.362Z,24.70
2022-07-31T07:55:02.117Z,24.80
2022-07-31T07:58:07.660Z,24.90
2022-07-31T08:01:11.959Z,25.00
2022-07-31T08:04:13.691Z,24.90
2022-07-31T08:07:15.293Z,24.80
2022-07-31T08:10:19.195Z,24.70
2022-07-31T08:13:20.814Z,24.60
2022-07-31T08:16:22.686Z,24.60
2022-07-31T08:19:24.320Z,24.60
2022-07-31T08:22:26.049Z,24.60
2022-07-31T08:25:31.974Z,24.70
2022-07-31T08:28:34.761Z,24.70
2022-07-31T08:31:37.660Z,24.80
2022-07-31T08:34:42.100Z,25.10
2022-07-31T08:38:02.456Z,25.40
2022-07-31T08:41:05.872Z,25.80
2022-07-31T08:44:09.158Z,26.20
2022-07-31T08:47:14.714Z,26.60
2022-07-31T08:50:17.101Z,26.80
2022-07-31T08:53:22.581Z,26.80
2022-07-31T08:56:25.588Z,26.90
2022-07-31T08:59:27.293Z,27.00
2022-07-31T09:02:29.002Z,27.30
2022-07-31T09:05:41.774Z,27.30
2022-07-31T09:08:44.485Z,27.50
2022-07-31T09:11:50.680Z,27.40
2022-07-31T09:14:52.480Z,27.70
2022-07-31T09:17:54.763Z,28.00
2022-07-31T09:20:57.200Z,28.30
2022-07-31T09:23:58.806Z,28.50
2022-07-31T09:27:07.064Z,28.50
2022-07-31T09:30:10.031Z,28.70
2022-07-31T09:33:19.323Z,28.80
2022-07-31T09:36:23.987Z,29.00
2022-07-31T09:39:27.640Z,29.20
2022-07-31T09:42:38.299Z,29.40
2022-07-31T09:46:00.539Z,29.50
2022-07-31T09:49:03.158Z,29.40
2022-07-31T09:52:05.060Z,29.60
2022-07-31T09:55:17.004Z,29.40
2022-07-31T09:58:19.028Z,29.30
2022-07-31T10:01:20.994Z,29.20
2022-07-31T10:04:23.566Z,29.20
2022-07-31T10:07:32.607Z,29.10
2022-07-31T10:10:35.988Z,29.20
2022-07-31T10:13:44.128Z,29.20
2022-07-31T10:16:46.929Z,29.20
2022-07-31T10:19:51.404Z,29.30
2022-07-31T10:23:00.323Z,29.50
2022-07-31T10:26:03.569Z,29.60
2022-07-31T10:29:05.275Z,29.90
2022-07-31T10:32:08.646Z,30.10
2022-07-31T10:35:10.564Z,30.20
2022-07-31T10:38:27.096Z,30.30
2022-07-31T10:41:35.382Z,30.50
2022-07-31T10:44:45.738Z,30.90
2022-07-31T10:48:10.801Z,31.20
2022-07-31T10:51:12.445Z,31.30
2022-07-31T10:54:15.450Z,31.50
2022-07-31T10:57:29.074Z,31.40
2022-07-31T11:00:30.661Z,31.20
2022-07-31T11:03:39.910Z,31.00
2022-07-31T11:06:44.511Z,31.10
2022-07-31T11:09:51.266Z,31.00
2022-07-31T11:13:06.093Z,30.80
2022-07-31T11:16:07.790Z,31.10
2022-07-31T11:19:09.686Z,31.00
2022-07-31T11:22:31.985Z,31.20
2022-07-31T11:25:38.271Z,31.30
2022-07-31T11:28:44.783Z,31.20
2022-07-31T11:31:46.407Z,31.00
2022-07-31T11:34:49.752Z,31.00
2022-07-31T11:37:57.740Z,31.20
2022-07-31T11:41:00.199Z,31.40
2022-07-31T11:44:03.221Z,31.60
2022-07-31T11:48:09.456Z,31.70
2022-07-31T11:50:30.485Z,31.90
2022-07-31T11:53:41.491Z,32.10
2022-07-31T11:56:43.165Z,32.30
2022-07-31T11:59:49.666Z,32.60
2022-07-31T12:02:51.609Z,33.00
2022-07-31T12:05:53.564Z,33.00
2022-07-31T12:08:55.453Z,33.20
2022-07-31T12:11:57.627Z,33.10
2022-07-31T12:14:59.348Z,33.00
2022-07-31T12:18:03.326Z,33.00
2022-07-31T12:21:05.134Z,32.80
2022-07-31T12:24:11.918Z,32.80
2022-07-31T12:27:18.255Z,32.50
2022-07-31T12:30:25.066Z,32.30
2022-07-31T12:33:39.301Z,32.40
2022-07-31T12:36:41.301Z,32.60
2022-07-31T12:40:00.679Z,32.50
2022-07-31T12:43:03.367Z,32.30
2022-07-31T12:46:05.320Z,32.10
2022-07-31T12:49:08.368Z,32.00
2022-07-31T12:52:15.516Z,31.90
2022-07-31T12:55:17.840Z,32.10
2022-07-31T12:58:19.987Z,32.30
2022-07-31T13:01:21.609Z,32.40
2022-07-31T13:04:23.241Z,32.70
2022-07-31T13:07:24.970Z,32.60
2022-07-31T13:10:31.886Z,32.50
2022-07-31T13:13:33.866Z,32.40
2022-07-31T13:16:35.577Z,32.90
2022-07-31T13:19:37.590Z,33.20
2022-07-31T13:22:39.392Z,33.30
2022-07-31T13:25:41.091Z,34.00
2022-07-31T13:28:42.985Z,34.20
2022-07-31T13:31:45.576Z,34.50
2022-07-31T13:34:47.226Z,34.50
2022-07-31T13:38:08.871Z,34.10
2022-07-31T13:41:28.188Z,33.40
2022-07-31T13:44:29.823Z,32.80
2022-07-31T13:47:50.813Z,32.60
2022-07-31T13:50:53.093Z,32.50
2022-07-31T13:53:54.700Z,32.60
2022-07-31T13:56:56.417Z,32.80
2022-07-31T13:59:58.035Z,32.90
2022-07-31T14:03:00.000Z,32.90
2022-07-31T14:06:01.614Z,33.00
2022-07-31T14:09:04.112Z,32.90
2022-07-31T14:12:06.257Z,32.60
2022-07-31T14:15:08.731Z,32.50
2022-07-31T14:18:10.661Z,32.40
2022-07-31T14:21:12.345Z,32.50
2022-07-31T14:24:18.198Z,32.70
2022-07-31T14:27:20.519Z,32.80
2022-07-31T14:30:22.350Z,32.70
2022-07-31T14:33:24.489Z,32.60
2022-07-31T14:36:26.131Z,32.80
2022-07-31T14:39:27.759Z,32.90
2022-07-31T14:42:29.514Z,32.80
2022-07-31T14:45:31.275Z,32.70
2022-07-31T14:48:39.875Z,32.70
2022-07-31T14:51:41.491Z,32.80
2022-07-31T14:54:43.164Z,32.80
2022-07-31T14:57:45.292Z,32.80
2022-07-31T15:00:47.130Z,32.80
2022-07-31T15:03:48.841Z,32.90
2022-07-31T15:07:02.763Z,32.50
2022-07-31T15:10:12.584Z,32.50
2022-07-31T15:13:14.390Z,33.00
2022-07-31T15:16:15.977Z,33.10
2022-07-31T15:19:17.681Z,32.80
2022-07-31T15:22:19.418Z,32.70
2022-07-31T15:25:21.162Z,33.00
2022-07-31T15:28:22.807Z,33.30
2022-07-31T15:31:25.021Z,33.20
2022-07-31T15:34:26.582Z,33.30
2022-07-31T15:37:28.350Z,33.50
2022-07-31T15:40:30.237Z,33.70
2022-07-31T15:43:34.957Z,33.50
2022-07-31T15:46:36.601Z,33.50
2022-07-31T15:49:44.088Z,33.30
2022-07-31T15:52:46.718Z,33.50
2022-07-31T15:55:48.772Z,33.40
2022-07-31T15:58:53.786Z,33.60
2022-07-31T16:01:55.682Z,33.80
2022-07-31T16:05:11.021Z,33.80
2022-07-31T16:08:30.920Z,33.50
2022-07-31T16:12:04.417Z,32.60
2022-07-31T16:14:58.630Z,32.00
2022-07-31T16:18:00.636Z,31.70
2022-07-31T16:21:02.279Z,31.60
2022-07-31T16:24:04.653Z,31.40
2022-07-31T16:27:06.832Z,31.10
2022-07-31T16:30:08.991Z,31.00
2022-07-31T16:33:10.568Z,30.80
2022-07-31T16:36:12.163Z,30.80
2022-07-31T16:39:21.554Z,31.00
2022-07-31T16:42:23.159Z,30.80
2022-07-31T16:45:24.781Z,30.70
2022-07-31T16:48:26.463Z,30.70
2022-07-31T16:51:28.064Z,30.50
2022-07-31T16:54:29.672Z,30.30
2022-07-31T16:57:31.311Z,30.30
2022-07-31T17:00:32.970Z,30.20
2022-07-31T17:04:02.134Z,30.10
2022-07-31T17:06:56.683Z,30.10
2022-07-31T17:09:58.730Z,30.20
2022-07-31T17:13:00.356Z,30.30
2022-07-31T17:16:02.081Z,30.80
2022-07-31T17:19:05.815Z,31.80
2022-07-31T17:22:07.965Z,32.70
2022-07-31T17:25:09.901Z,33.30
2022-07-31T17:28:15.216Z,33.90
2022-07-31T17:31:17.596Z,33.50
2022-07-31T17:34:19.182Z,33.00
2022-07-31T17:37:20.823Z,33.30
2022-07-31T17:40:43.059Z,33.70
2022-07-31T17:43:50.707Z,34.00
2022-07-31T17:46:54.967Z,34.30
2022-07-31T17:49:57.280Z,34.20
2022-07-31T17:52:58.963Z,34.00
2022-07-31T17:56:00.542Z,33.90
2022-07-31T17:59:06.234Z,33.40
2022-07-31T18:02:08.174Z,33.40
2022-07-31T18:05:10.357Z,33.30
2022-07-31T18:08:11.947Z,32.80
2022-07-31T18:11:13.549Z,32.40
2022-07-31T18:14:15.326Z,31.90
2022-07-31T18:17:20.554Z,31.40
2022-07-31T18:20:22.298Z,31.10
2022-07-31T18:23:29.269Z,30.90
2022-07-31T18:26:37.460Z,30.60
2022-07-31T18:29:39.399Z,30.30
2022-07-31T18:32:42.604Z,30.00
2022-07-31T18:35:46.117Z,29.70
2022-07-31T18:38:47.833Z,29.50
2022-07-31T18:41:49.567Z,29.30
2022-07-31T18:44:51.459Z,29.00
2022-07-31T18:47:53.414Z,28.70
2022-07-31T18:51:00.949Z,28.50
2022-07-31T18:54:05.728Z,28.40
2022-07-31T18:57:07.963Z,28.20
2022-07-31T19:00:10.710Z,28.20
2022-07-31T19:03:12.311Z,28.00
2022-07-31T19:06:14.104Z,27.80
2022-07-31T19:09:15.763Z,27.70
2022-07-31T19:12:17.495Z,27.60
2022-07-31T19:15:19.232Z,27.50
2022-07-31T19:18:28.273Z,27.50
2022-07-31T19:21:41.423Z,27.30
2022-07-31T19:24:44.529Z,27.30
2022-07-31T19:27:48.157Z,27.20
2022-07-31T19:30:52.863Z,27.10
2022-07-31T19:33:54.584Z,27.00
2022-07-31T19:36:56.222Z,27.00
2022-07-31T19:39:57.894Z,26.90
2022-07-31T19:42:59.693Z,26.90
2022-07-31T19:46:11.444Z,26.80
2022-07-31T19:49:14.275Z,26.80
2022-07-31T19:52:16.152Z,26.80
2022-07-31T19:55:17.873Z,26.70
2022-07-31T19:58:21.124Z,26.60
2022-07-31T20:01:22.923Z,26.60
2022-07-31T20:04:24.889Z,26.50
2022-07-31T20:07:30.972Z,26.40
2022-07-31T20:10:34.491Z,26.30
2022-07-31T20:13:38.456Z,26.30
2022-07-31T20:16:40.072Z,26.20
2022-07-31T20:20:01.487Z,26.10
2022-07-31T20:23:05.077Z,26.00
2022-07-31T20:26:08.740Z,25.90
2022-07-31T20:29:10.531Z,25.80
2022-07-31T20:32:12.233Z,25.70
2022-07-31T20:35:35.279Z,25.70
2022-07-31T20:38:35.926Z,25.70
2022-07-31T20:41:37.549Z,25.60
2022-07-31T20:44:51.126Z,25.60
2022-07-31T20:47:53.046Z,25.50
2022-07-31T20:50:54.628Z,25.60
2022-07-31T20:53:56.751Z,25.60
2022-07-31T20:56:58.496Z,25.50
2022-07-31T21:00:00.087Z,25.50
2022-07-31T21:03:01.742Z,25.50
2022-07-31T21:06:04.468Z,25.40
2022-07-31T21:09:07.216Z,25.40
2022-07-31T21:12:09.497Z,25.30
2022-07-31T21:15:40.816Z,25.20
2022-07-31T21:18:34.742Z,25.20
2022-07-31T21:21:37.702Z,25.20
2022-07-31T21:24:39.583Z,25.20
2022-07-31T21:27:41.495Z,25.10
2022-07-31T21:30:43.265Z,25.10
2022-07-31T21:33:45.340Z,25.10
2022-07-31T21:36:48.222Z,25.00
2022-07-31T21:39:50.932Z,25.00
2022-07-31T21:42:56.649Z,24.90
2022-07-31T21:46:05.667Z,24.90
2022-07-31T21:49:09.102Z,24.70
2022-07-31T21:52:11.482Z,24.60
2022-07-31T21:55:13.237Z,24.60
2022-07-31T21:58:15.323Z,24.50
2022-07-31T22:01:17.056Z,24.50
2022-07-31T22:04:18.727Z,24.40
2022-07-31T22:07:41.966Z,24.30
2022-07-31T22:10:43.861Z,24.30
2022-07-31T22:13:45.435Z,24.20
2022-07-31T22:16:47.150Z,24.10
2022-07-31T22:19:49.055Z,23.90
2022-07-31T22:22:51.807Z,23.80
2022-07-31T22:25:53.948Z,23.70
2022-07-31T22:28:56.703Z,23.70
2022-07-31T22:31:58.688Z,23.60
2022-07-31T22:35:00.476Z,23.60
2022-07-31T22:38:02.238Z,23.60
2022-07-31T22:41:04.054Z,23.60
2022-07-31T22:44:13.258Z,23.50
2022-07-31T22:47:17.262Z,23.50
2022-07-31T22:50:18.992Z,23.50
2022-07-31T22:53:21.019Z,23.40
2022-07-31T22:56:22.674Z,23.30
2022-07-31T22:59:24.364Z,23.20
2022-07-31T23:02:26.310Z,23.20
2022-07-31T23:05:28.033Z,23.10
2022-07-31T23:08:29.674Z,23.20
2022-07-31T23:11:31.391Z,23.10
2022-07-31T23:14:33.073Z,23.10
2022-07-31T23:17:34.832Z,23.20
2022-07-31T23:20:36.432Z,23.20
2022-07-31T23:23:38.106Z,23.20
2022-07-31T23:26:39.788Z,23.20
2022-07-31T23:29:41.819Z,23.20
2022-07-31T23:32:43.551Z,23.20
2022-07-31T23:35:45.153Z,23.20
2022-07-31T23:38:46.873Z,23.20
2022-07-31T23:42:07.649Z,23.20
2022-07-31T23:45:12.316Z,23.10
2022-07-31T23:48:14.921Z,23.10
2022-07-31T23:51:16.779Z,23.10
2022-07-31T23:54:22.599Z,23.00
2022-07-31T23:57:24.283Z,23.00
